sensor_id;sensor_type;location;lat;lon;timestamp;pressure;altitude;pressure_sealevel;temperature;humidity
47716;BME280;33476;50.984;3.538;2024-01-30T00:00:31;102619.09;;;12.86;66.35
47716;BME280;33476;50.984;3.538;2024-01-30T00:02:57;102610.28;;;12.88;66.23
47716;BME280;33476;50.984;3.538;2024-01-30T00:05:22;102611.06;;;12.92;65.97
47716;BME280;33476;50.984;3.538;2024-01-30T00:07:47;102617.25;;;12.89;66.06
47716;BME280;33476;50.984;3.538;2024-01-30T00:10:13;102609.38;;;12.89;66.03
47716;BME280;33476;50.984;3.538;2024-01-30T00:12:38;102604.22;;;12.86;66.03
47716;BME280;33476;50.984;3.538;2024-01-30T00:15:04;102594.53;;;12.88;66.34
47716;BME280;33476;50.984;3.538;2024-01-30T00:17:30;102607.53;;;12.93;66.01
47716;BME280;33476;50.984;3.538;2024-01-30T00:19:56;102604.00;;;12.94;65.86
47716;BME280;33476;50.984;3.538;2024-01-30T00:22:21;102606.63;;;12.94;66.10
47716;BME280;33476;50.984;3.538;2024-01-30T00:24:47;102608.28;;;12.97;65.80
47716;BME280;33476;50.984;3.538;2024-01-30T00:27:12;102605.78;;;12.93;65.92
47716;BME280;33476;50.984;3.538;2024-01-30T00:29:37;102601.38;;;12.94;65.90
47716;BME280;33476;50.984;3.538;2024-01-30T00:32:03;102595.19;;;12.97;65.80
47716;BME280;33476;50.984;3.538;2024-01-30T00:34:28;102601.22;;;12.99;65.76
47716;BME280;33476;50.984;3.538;2024-01-30T00:36:54;102597.81;;;12.97;65.84
47716;BME280;33476;50.984;3.538;2024-01-30T00:39:19;102594.31;;;12.96;66.02
47716;BME280;33476;50.984;3.538;2024-01-30T00:41:45;102596.03;;;12.97;65.70
47716;BME280;33476;50.984;3.538;2024-01-30T00:44:10;102603.16;;;12.93;66.19
47716;BME280;33476;50.984;3.538;2024-01-30T00:46:35;102602.34;;;12.91;66.02
47716;BME280;33476;50.984;3.538;2024-01-30T00:49:01;102599.72;;;12.91;66.04
47716;BME280;33476;50.984;3.538;2024-01-30T00:51:26;102598.03;;;12.89;66.17
47716;BME280;33476;50.984;3.538;2024-01-30T00:53:55;102593.69;;;12.88;66.13
47716;BME280;33476;50.984;3.538;2024-01-30T00:56:20;102591.16;;;12.85;66.41
47716;BME280;33476;50.984;3.538;2024-01-30T00:58:48;102593.00;;;12.83;66.59
47716;BME280;33476;50.984;3.538;2024-01-30T01:01:13;102593.84;;;12.83;66.33
47716;BME280;33476;50.984;3.538;2024-01-30T01:03:41;102580.81;;;12.80;66.13
47716;BME280;33476;50.984;3.538;2024-01-30T01:06:08;102585.97;;;12.83;66.58
47716;BME280;33476;50.984;3.538;2024-01-30T01:08:34;102581.59;;;12.84;66.36
47716;BME280;33476;50.984;3.538;2024-01-30T01:10:59;102572.03;;;12.81;66.27
47716;BME280;33476;50.984;3.538;2024-01-30T01:13:24;102561.53;;;12.81;66.28
47716;BME280;33476;50.984;3.538;2024-01-30T01:15:50;102570.25;;;12.83;66.53
47716;BME280;33476;50.984;3.538;2024-01-30T01:18:15;102577.19;;;12.84;66.28
47716;BME280;33476;50.984;3.538;2024-01-30T01:20:41;102575.34;;;12.88;66.08
47716;BME280;33476;50.984;3.538;2024-01-30T01:23:06;102574.56;;;12.84;66.65
47716;BME280;33476;50.984;3.538;2024-01-30T01:25:31;102578.91;;;12.85;66.18
47716;BME280;33476;50.984;3.538;2024-01-30T01:27:57;102578.09;;;12.83;66.63
47716;BME280;33476;50.984;3.538;2024-01-30T01:30:22;102581.66;;;12.81;66.87
47716;BME280;33476;50.984;3.538;2024-01-30T01:32:48;102572.06;;;12.80;66.55
47716;BME280;33476;50.984;3.538;2024-01-30T01:35:22;102578.97;;;12.84;66.55
47716;BME280;33476;50.984;3.538;2024-01-30T01:37:49;102571.13;;;12.82;66.29
47716;BME280;33476;50.984;3.538;2024-01-30T01:40:21;102571.13;;;12.82;66.74
47716;BME280;33476;50.984;3.538;2024-01-30T01:42:47;102562.38;;;12.83;66.60
47716;BME280;33476;50.984;3.538;2024-01-30T01:45:12;102563.19;;;12.85;66.39
47716;BME280;33476;50.984;3.538;2024-01-30T01:47:38;102561.53;;;12.81;66.80
47716;BME280;33476;50.984;3.538;2024-01-30T01:50:03;102559.69;;;12.85;66.85
47716;BME280;33476;50.984;3.538;2024-01-30T01:52:29;102562.41;;;12.82;66.83
47716;BME280;33476;50.984;3.538;2024-01-30T01:54:54;102565.00;;;12.82;66.62
47716;BME280;33476;50.984;3.538;2024-01-30T01:57:20;102555.38;;;12.82;67.08
47716;BME280;33476;50.984;3.538;2024-01-30T01:59:46;102551.06;;;12.81;66.65
47716;BME280;33476;50.984;3.538;2024-01-30T02:02:12;102559.75;;;12.83;66.80
47716;BME280;33476;50.984;3.538;2024-01-30T02:04:41;102559.75;;;12.83;67.02
47716;BME280;33476;50.984;3.538;2024-01-30T02:07:07;102548.41;;;12.83;67.19
47716;BME280;33476;50.984;3.538;2024-01-30T02:09:32;102550.06;;;12.85;66.73
47716;BME280;33476;50.984;3.538;2024-01-30T02:11:58;102544.81;;;12.85;67.11
47716;BME280;33476;50.984;3.538;2024-01-30T02:14:23;102543.91;;;12.86;66.88
47716;BME280;33476;50.984;3.538;2024-01-30T02:16:48;102542.25;;;12.84;67.17
47716;BME280;33476;50.984;3.538;2024-01-30T02:19:14;102550.06;;;12.85;67.12
47716;BME280;33476;50.984;3.538;2024-01-30T02:21:39;102549.97;;;12.88;67.29
47716;BME280;33476;50.984;3.538;2024-01-30T02:24:05;102545.53;;;12.90;67.20
47716;BME280;33476;50.984;3.538;2024-01-30T02:26:31;102545.50;;;12.92;66.96
47716;BME280;33476;50.984;3.538;2024-01-30T02:28:56;102545.50;;;12.92;67.17
47716;BME280;33476;50.984;3.538;2024-01-30T02:31:21;102549.84;;;12.93;67.01
47716;BME280;33476;50.984;3.538;2024-01-30T02:33:47;102547.28;;;12.90;67.20
47716;BME280;33476;50.984;3.538;2024-01-30T02:36:12;102555.13;;;12.91;67.47
47716;BME280;33476;50.984;3.538;2024-01-30T02:38:38;102553.44;;;12.89;67.62
47716;BME280;33476;50.984;3.538;2024-01-30T02:41:03;102557.78;;;12.90;67.20
47716;BME280;33476;50.984;3.538;2024-01-30T02:43:28;102556.94;;;12.89;67.73
47716;BME280;33476;50.984;3.538;2024-01-30T02:45:54;102553.41;;;12.90;67.49
47716;BME280;33476;50.984;3.538;2024-01-30T02:48:19;102555.84;;;12.97;67.45
47716;BME280;33476;50.984;3.538;2024-01-30T02:50:44;102557.53;;;12.99;67.37
47716;BME280;33476;50.984;3.538;2024-01-30T02:53:11;102545.22;;;13.01;67.55
47716;BME280;33476;50.984;3.538;2024-01-30T02:55:36;102552.19;;;13.02;67.03
47716;BME280;33476;50.984;3.538;2024-01-30T02:58:01;102553.09;;;13.01;67.29
47716;BME280;33476;50.984;3.538;2024-01-30T03:00:27;102550.41;;;13.03;67.12
47716;BME280;33476;50.984;3.538;2024-01-30T03:02:52;102545.91;;;13.06;67.23
47716;BME280;33476;50.984;3.538;2024-01-30T03:05:18;102553.72;;;13.09;67.19
47716;BME280;33476;50.984;3.538;2024-01-30T03:07:43;102545.00;;;13.09;66.85
47716;BME280;33476;50.984;3.538;2024-01-30T03:10:09;102544.25;;;13.04;67.07
47716;BME280;33476;50.984;3.538;2024-01-30T03:12:34;102539.06;;;13.02;67.33
47716;BME280;33476;50.984;3.538;2024-01-30T03:14:59;102535.44;;;13.06;67.39
47716;BME280;33476;50.984;3.538;2024-01-30T03:17:25;102538.88;;;13.08;66.94
47716;BME280;33476;50.984;3.538;2024-01-30T03:19:51;102536.25;;;13.08;67.37
47716;BME280;33476;50.984;3.538;2024-01-30T03:22:16;102537.97;;;13.09;67.30
47716;BME280;33476;50.984;3.538;2024-01-30T03:24:42;102532.78;;;13.08;67.26
47716;BME280;33476;50.984;3.538;2024-01-30T03:27:08;102534.63;;;13.04;67.54
47716;BME280;33476;50.984;3.538;2024-01-30T03:29:33;102537.31;;;13.03;67.22
47716;BME280;33476;50.984;3.538;2024-01-30T03:31:59;102541.69;;;13.02;67.22
47716;BME280;33476;50.984;3.538;2024-01-30T03:34:24;102541.69;;;13.02;67.64
47716;BME280;33476;50.984;3.538;2024-01-30T03:36:50;102538.25;;;13.00;67.27
47716;BME280;33476;50.984;3.538;2024-01-30T03:39:15;102534.81;;;12.98;67.75
47716;BME280;33476;50.984;3.538;2024-01-30T03:41:43;102545.50;;;12.92;67.61
47716;BME280;33476;50.984;3.538;2024-01-30T03:44:09;102536.69;;;12.94;67.52
47716;BME280;33476;50.984;3.538;2024-01-30T03:46:35;102536.63;;;12.96;67.56
47716;BME280;33476;50.984;3.538;2024-01-30T03:49:00;102535.78;;;12.96;67.80
47716;BME280;33476;50.984;3.538;2024-01-30T03:51:25;102525.28;;;12.96;67.37
47716;BME280;33476;50.984;3.538;2024-01-30T03:53:51;102530.47;;;12.97;67.37
47716;BME280;33476;50.984;3.538;2024-01-30T03:56:16;102521.84;;;12.93;67.43
47716;BME280;33476;50.984;3.538;2024-01-30T03:58:41;102522.81;;;12.91;67.94
47716;BME280;33476;50.984;3.538;2024-01-30T04:01:07;102521.94;;;12.90;67.57
47716;BME280;33476;50.984;3.538;2024-01-30T04:03:33;102525.63;;;12.85;67.77
47716;BME280;33476;50.984;3.538;2024-01-30T04:05:58;102522.13;;;12.84;68.04
47716;BME280;33476;50.984;3.538;2024-01-30T04:08:23;102523.84;;;12.85;68.05
47716;BME280;33476;50.984;3.538;2024-01-30T04:10:49;102512.56;;;12.82;67.94
47716;BME280;33476;50.984;3.538;2024-01-30T04:13:14;102512.69;;;12.79;68.17
47716;BME280;33476;50.984;3.538;2024-01-30T04:15:39;102512.69;;;12.79;68.26
47716;BME280;33476;50.984;3.538;2024-01-30T04:18:05;102505.56;;;12.82;67.73
47716;BME280;33476;50.984;3.538;2024-01-30T04:20:31;102502.94;;;12.84;67.64
47716;BME280;33476;50.984;3.538;2024-01-30T04:22:56;102500.31;;;12.82;68.15
47716;BME280;33476;50.984;3.538;2024-01-30T04:25:21;102500.47;;;12.78;68.24
47716;BME280;33476;50.984;3.538;2024-01-30T04:27:47;102498.72;;;12.78;67.90
47716;BME280;33476;50.984;3.538;2024-01-30T04:30:13;102511.78;;;12.80;68.06
47716;BME280;33476;50.984;3.538;2024-01-30T04:32:38;102506.47;;;12.83;67.89
47716;BME280;33476;50.984;3.538;2024-01-30T04:35:04;102509.03;;;12.84;68.03
47716;BME280;33476;50.984;3.538;2024-01-30T04:37:30;102497.47;;;12.90;67.87
47716;BME280;33476;50.984;3.538;2024-01-30T04:39:55;102494.81;;;12.91;67.91
47716;BME280;33476;50.984;3.538;2024-01-30T04:42:20;102499.91;;;12.96;67.77
47716;BME280;33476;50.984;3.538;2024-01-30T04:44:46;102498.13;;;12.97;67.81
47716;BME280;33476;50.984;3.538;2024-01-30T04:47:11;102499.84;;;12.98;67.53
47716;BME280;33476;50.984;3.538;2024-01-30T04:49:39;102498.19;;;12.95;67.66
47716;BME280;33476;50.984;3.538;2024-01-30T04:52:06;102511.31;;;12.95;67.46
47716;BME280;33476;50.984;3.538;2024-01-30T04:54:31;102515.69;;;12.94;67.81
47716;BME280;33476;50.984;3.538;2024-01-30T04:56:56;102505.34;;;12.90;67.80
47716;BME280;33476;50.984;3.538;2024-01-30T04:59:22;102514.06;;;12.90;68.09
47716;BME280;33476;50.984;3.538;2024-01-30T05:01:47;102511.50;;;12.89;67.99
47716;BME280;33476;50.984;3.538;2024-01-30T05:04:13;102512.41;;;12.88;67.98
47716;BME280;33476;50.984;3.538;2024-01-30T05:06:38;102521.94;;;12.90;68.03
47716;BME280;33476;50.984;3.538;2024-01-30T05:09:03;102508.91;;;12.87;67.86
47716;BME280;33476;50.984;3.538;2024-01-30T05:11:30;102510.75;;;12.85;67.69
47716;BME280;33476;50.984;3.538;2024-01-30T05:13:55;102515.19;;;12.83;68.18
47716;BME280;33476;50.984;3.538;2024-01-30T05:16:20;102523.00;;;12.85;68.23
47716;BME280;33476;50.984;3.538;2024-01-30T05:18:46;102510.78;;;12.84;67.97
47716;BME280;33476;50.984;3.538;2024-01-30T05:21:11;102519.56;;;12.83;67.79
47716;BME280;33476;50.984;3.538;2024-01-30T05:23:36;102534.41;;;12.82;67.80
47716;BME280;33476;50.984;3.538;2024-01-30T05:26:02;102534.41;;;12.82;68.13
47716;BME280;33476;50.984;3.538;2024-01-30T05:28:29;102538.78;;;12.83;67.67
47716;BME280;33476;50.984;3.538;2024-01-30T05:30:55;102548.44;;;12.81;67.69
47716;BME280;33476;50.984;3.538;2024-01-30T05:33:20;102545.84;;;12.80;68.10
47716;BME280;33476;50.984;3.538;2024-01-30T05:35:46;102548.47;;;12.80;68.23
47716;BME280;33476;50.984;3.538;2024-01-30T05:38:11;102547.66;;;12.78;68.42
47716;BME280;33476;50.984;3.538;2024-01-30T05:40:37;102549.59;;;12.71;68.45
47716;BME280;33476;50.984;3.538;2024-01-30T05:43:03;102553.91;;;12.74;68.28
47716;BME280;33476;50.984;3.538;2024-01-30T05:45:28;102553.03;;;12.75;68.47
47716;BME280;33476;50.984;3.538;2024-01-30T05:47:54;102555.66;;;12.73;68.16
47716;BME280;33476;50.984;3.538;2024-01-30T05:50:19;102559.19;;;12.72;68.65
47716;BME280;33476;50.984;3.538;2024-01-30T05:52:45;102560.94;;;12.72;68.35
47716;BME280;33476;50.984;3.538;2024-01-30T05:55:11;102559.28;;;12.69;68.52
47716;BME280;33476;50.984;3.538;2024-01-30T05:57:37;102559.28;;;12.69;68.54
47716;BME280;33476;50.984;3.538;2024-01-30T06:00:06;102568.00;;;12.70;68.75
47716;BME280;33476;50.984;3.538;2024-01-30T06:02:32;102572.34;;;12.71;68.87
47716;BME280;33476;50.984;3.538;2024-01-30T06:04:58;102573.19;;;12.71;68.73
47716;BME280;33476;50.984;3.538;2024-01-30T06:07:23;102580.94;;;12.76;68.61
47716;BME280;33476;50.984;3.538;2024-01-30T06:09:49;102578.97;;;12.82;68.18
47716;BME280;33476;50.984;3.538;2024-01-30T06:12:14;102581.59;;;12.84;68.37
47716;BME280;33476;50.984;3.538;2024-01-30T06:14:40;102578.06;;;12.85;68.50
47716;BME280;33476;50.984;3.538;2024-01-30T06:17:08;102568.47;;;12.84;68.29
47716;BME280;33476;50.984;3.538;2024-01-30T06:19:33;102573.72;;;12.84;68.27
47716;BME280;33476;50.984;3.538;2024-01-30T06:21:59;102576.34;;;12.84;68.43
47716;BME280;33476;50.984;3.538;2024-01-30T06:24:24;102573.75;;;12.82;68.75
47716;BME280;33476;50.984;3.538;2024-01-30T06:26:49;102572.81;;;12.85;68.68
47716;BME280;33476;50.984;3.538;2024-01-30T06:29:15;102573.56;;;12.88;68.52
47716;BME280;33476;50.984;3.538;2024-01-30T06:31:42;102582.28;;;12.89;68.38
47716;BME280;33476;50.984;3.538;2024-01-30T06:34:08;102581.44;;;12.88;68.22
47716;BME280;33476;50.984;3.538;2024-01-30T06:36:34;102585.75;;;12.91;68.86
47716;BME280;33476;50.984;3.538;2024-01-30T06:38:59;102584.91;;;12.89;68.71
47716;BME280;33476;50.984;3.538;2024-01-30T06:41:25;102590.09;;;12.90;68.72
47716;BME280;33476;50.984;3.538;2024-01-30T06:43:50;102585.69;;;12.92;68.48
47716;BME280;33476;50.984;3.538;2024-01-30T06:46:15;102586.47;;;12.96;68.73
47716;BME280;33476;50.984;3.538;2024-01-30T06:48:41;102593.38;;;12.99;68.96
47716;BME280;33476;50.984;3.538;2024-01-30T06:51:09;102582.16;;;12.93;68.70
47716;BME280;33476;50.984;3.538;2024-01-30T06:53:34;102594.44;;;12.93;68.91
47716;BME280;33476;50.984;3.538;2024-01-30T06:56:00;102608.47;;;12.90;68.97
47716;BME280;33476;50.984;3.538;2024-01-30T06:58:25;102602.34;;;12.91;69.11
47716;BME280;33476;50.984;3.538;2024-01-30T07:00:51;102599.63;;;12.94;69.01
47716;BME280;33476;50.984;3.538;2024-01-30T07:03:16;102604.88;;;12.94;69.16
47716;BME280;33476;50.984;3.538;2024-01-30T07:05:42;102609.25;;;12.94;69.23
47716;BME280;33476;50.984;3.538;2024-01-30T07:08:08;102606.63;;;12.94;69.24
47716;BME280;33476;50.984;3.538;2024-01-30T07:10:33;102622.38;;;12.94;69.30
47716;BME280;33476;50.984;3.538;2024-01-30T07:13:00;102613.50;;;12.98;69.17
47716;BME280;33476;50.984;3.538;2024-01-30T07:15:26;102614.22;;;13.03;68.88
47716;BME280;33476;50.984;3.538;2024-01-30T07:17:51;102622.84;;;13.07;68.86
47716;BME280;33476;50.984;3.538;2024-01-30T07:20:16;102626.31;;;13.09;69.10
47716;BME280;33476;50.984;3.538;2024-01-30T07:22:43;102627.22;;;13.08;69.05
47716;BME280;33476;50.984;3.538;2024-01-30T07:25:09;102624.59;;;13.08;69.14
47716;BME280;33476;50.984;3.538;2024-01-30T07:27:34;102622.84;;;13.07;69.41
47716;BME280;33476;50.984;3.538;2024-01-30T07:29:59;102629.97;;;13.03;69.34
47716;BME280;33476;50.984;3.538;2024-01-30T07:32:25;102631.78;;;13.01;69.41
47716;BME280;33476;50.984;3.538;2024-01-30T07:34:50;102642.22;;;13.03;69.73
47716;BME280;33476;50.984;3.538;2024-01-30T07:37:16;102652.53;;;13.09;69.23
47716;BME280;33476;50.984;3.538;2024-01-30T07:39:42;102641.91;;;13.13;69.18
47716;BME280;33476;50.984;3.538;2024-01-30T07:42:08;102642.69;;;13.17;69.23
47716;BME280;33476;50.984;3.538;2024-01-30T07:44:34;102648.84;;;13.16;69.22
47716;BME280;33476;50.984;3.538;2024-01-30T07:46:59;102643.59;;;13.16;69.41
47716;BME280;33476;50.984;3.538;2024-01-30T07:49:24;102649.88;;;13.10;69.69
47716;BME280;33476;50.984;3.538;2024-01-30T07:51:50;102655.16;;;13.09;69.73
47716;BME280;33476;50.984;3.538;2024-01-30T07:54:16;102665.69;;;13.07;69.68
47716;BME280;33476;50.984;3.538;2024-01-30T07:56:41;102663.91;;;13.09;69.64
47716;BME280;33476;50.984;3.538;2024-01-30T07:59:10;102673.53;;;13.09;69.77
47716;BME280;33476;50.984;3.538;2024-01-30T08:01:36;102673.53;;;13.09;69.46
47716;BME280;33476;50.984;3.538;2024-01-30T08:04:01;102671.78;;;13.09;69.48
47716;BME280;33476;50.984;3.538;2024-01-30T08:06:27;102670.81;;;13.12;69.66
47716;BME280;33476;50.984;3.538;2024-01-30T08:08:52;102677.78;;;13.13;69.46
47716;BME280;33476;50.984;3.538;2024-01-30T08:11:20;102678.78;;;13.09;69.95
47716;BME280;33476;50.984;3.538;2024-01-30T08:13:45;102682.09;;;13.14;69.73
47716;BME280;33476;50.984;3.538;2024-01-30T08:16:11;102684.72;;;13.14;70.03
47716;BME280;33476;50.984;3.538;2024-01-30T08:18:36;102701.38;;;13.13;70.11
47716;BME280;33476;50.984;3.538;2024-01-30T08:21:02;102693.47;;;13.14;69.68
47716;BME280;33476;50.984;3.538;2024-01-30T08:23:27;102702.09;;;13.19;69.85
47716;BME280;33476;50.984;3.538;2024-01-30T08:25:52;102716.91;;;13.22;69.65
47716;BME280;33476;50.984;3.538;2024-01-30T08:28:18;102712.63;;;13.18;69.77
47716;BME280;33476;50.984;3.538;2024-01-30T08:30:43;102715.25;;;13.18;69.93
47716;BME280;33476;50.984;3.538;2024-01-30T08:33:08;102717.91;;;13.16;69.96
47716;BME280;33476;50.984;3.538;2024-01-30T08:35:34;102712.69;;;13.15;70.42
47716;BME280;33476;50.984;3.538;2024-01-30T08:37:59;102716.16;;;13.17;70.19
47716;BME280;33476;50.984;3.538;2024-01-30T08:40:25;102721.34;;;13.20;69.99
47716;BME280;33476;50.984;3.538;2024-01-30T08:42:50;102726.59;;;13.20;69.99
47716;BME280;33476;50.984;3.538;2024-01-30T08:45:16;102718.78;;;13.17;70.22
47716;BME280;33476;50.984;3.538;2024-01-30T08:47:41;102721.41;;;13.17;69.98
47716;BME280;33476;50.984;3.538;2024-01-30T08:50:07;102730.19;;;13.14;70.01
47716;BME280;33476;50.984;3.538;2024-01-30T08:52:33;102725.94;;;13.10;70.05
47716;BME280;33476;50.984;3.538;2024-01-30T08:54:59;102732.09;;;13.09;70.10
47716;BME280;33476;50.984;3.538;2024-01-30T08:57:25;102738.16;;;13.11;70.25
47716;BME280;33476;50.984;3.538;2024-01-30T08:59:54;102741.66;;;13.12;70.15
47716;BME280;33476;50.984;3.538;2024-01-30T09:02:19;102730.25;;;13.13;70.27
47716;BME280;33476;50.984;3.538;2024-01-30T09:04:44;102727.72;;;13.10;69.72
47716;BME280;33476;50.984;3.538;2024-01-30T09:07:10;102719.91;;;13.07;69.68
47716;BME280;33476;50.984;3.538;2024-01-30T09:09:37;102732.38;;;13.00;69.51
47716;BME280;33476;50.984;3.538;2024-01-30T09:12:02;102737.69;;;12.97;69.59
47716;BME280;33476;50.984;3.538;2024-01-30T09:14:32;102747.25;;;12.98;69.68
47716;BME280;33476;50.984;3.538;2024-01-30T09:16:57;102749.69;;;13.06;69.17
47716;BME280;33476;50.984;3.538;2024-01-30T09:19:23;102758.25;;;13.12;68.73
47716;BME280;33476;50.984;3.538;2024-01-30T09:21:48;102755.53;;;13.15;68.43
47716;BME280;33476;50.984;3.538;2024-01-30T09:24:13;102757.28;;;13.16;68.27
47716;BME280;33476;50.984;3.538;2024-01-30T09:26:39;102754.72;;;13.13;67.83
47716;BME280;33476;50.984;3.538;2024-01-30T09:29:04;102767.13;;;13.07;67.72
47716;BME280;33476;50.984;3.538;2024-01-30T09:31:29;102767.84;;;13.13;67.01
47716;BME280;33476;50.984;3.538;2024-01-30T09:33:55;102780.03;;;13.14;66.97
47716;BME280;33476;50.984;3.538;2024-01-30T09:36:20;102779.22;;;13.12;66.76
47716;BME280;33476;50.984;3.538;2024-01-30T09:38:46;102774.91;;;13.11;66.55
47716;BME280;33476;50.984;3.538;2024-01-30T09:41:12;102789.88;;;13.08;66.41
47716;BME280;33476;50.984;3.538;2024-01-30T09:43:38;102798.63;;;13.07;66.23
47716;BME280;33476;50.984;3.538;2024-01-30T09:46:05;102808.34;;;13.03;66.20
47716;BME280;33476;50.984;3.538;2024-01-30T09:48:33;102806.66;;;13.01;66.07
47716;BME280;33476;50.984;3.538;2024-01-30T09:50:59;102805.75;;;13.02;66.13
47716;BME280;33476;50.984;3.538;2024-01-30T09:53:25;102817.22;;;12.99;66.08
47716;BME280;33476;50.984;3.538;2024-01-30T09:55:51;102813.63;;;13.02;65.51
47716;BME280;33476;50.984;3.538;2024-01-30T09:58:17;102819.78;;;13.01;65.43
47716;BME280;33476;50.984;3.538;2024-01-30T10:00:42;102822.50;;;12.96;65.38
47716;BME280;33476;50.984;3.538;2024-01-30T10:03:08;102818.22;;;12.93;65.04
47716;BME280;33476;50.984;3.538;2024-01-30T10:05:35;102823.56;;;12.89;64.94
47716;BME280;33476;50.984;3.538;2024-01-30T10:08:06;102829.69;;;12.89;64.53
47716;BME280;33476;50.984;3.538;2024-01-30T10:10:31;102833.16;;;12.90;64.54
47716;BME280;33476;50.984;3.538;2024-01-30T10:12:57;102827.00;;;12.92;64.70
47716;BME280;33476;50.984;3.538;2024-01-30T10:15:22;102840.16;;;12.91;63.95
47716;BME280;33476;50.984;3.538;2024-01-30T10:17:47;102842.78;;;12.91;64.06
47716;BME280;33476;50.984;3.538;2024-01-30T10:20:13;102848.03;;;12.91;63.91
47716;BME280;33476;50.984;3.538;2024-01-30T10:22:40;102839.25;;;12.92;64.07
47716;BME280;33476;50.984;3.538;2024-01-30T10:25:07;102842.53;;;12.99;64.05
47716;BME280;33476;50.984;3.538;2024-01-30T10:27:33;102849.59;;;12.97;63.69
47716;BME280;33476;50.984;3.538;2024-01-30T10:29:58;102843.44;;;12.98;63.88
47716;BME280;33476;50.984;3.538;2024-01-30T10:32:23;102847.84;;;12.97;63.98
47716;BME280;33476;50.984;3.538;2024-01-30T10:34:50;102848.75;;;12.96;63.68
47716;BME280;33476;50.984;3.538;2024-01-30T10:37:16;102842.53;;;13.00;63.57
47716;BME280;33476;50.984;3.538;2024-01-30T10:39:43;102834.66;;;13.00;63.54
47716;BME280;33476;50.984;3.538;2024-01-30T10:42:13;102844.16;;;13.04;63.61
47716;BME280;33476;50.984;3.538;2024-01-30T10:45:07;102851.19;;;13.04;63.65
47716;BME280;33476;50.984;3.538;2024-01-30T10:47:44;102852.06;;;13.03;63.17
47716;BME280;33476;50.984;3.538;2024-01-30T10:50:13;102842.53;;;13.00;63.35
47716;BME280;33476;50.984;3.538;2024-01-30T10:52:40;102840.81;;;12.98;63.23
47716;BME280;33476;50.984;3.538;2024-01-30T10:55:07;102852.13;;;13.01;63.28
47716;BME280;33476;50.984;3.538;2024-01-30T10:57:37;102844.31;;;13.00;62.88
47716;BME280;33476;50.984;3.538;2024-01-30T11:00:08;102851.13;;;13.05;62.70
47716;BME280;33476;50.984;3.538;2024-01-30T11:02:41;102856.41;;;13.04;62.96
47716;BME280;33476;50.984;3.538;2024-01-30T11:05:08;102862.53;;;13.04;62.35
47716;BME280;33476;50.984;3.538;2024-01-30T11:07:34;102849.56;;;12.98;62.77
47716;BME280;33476;50.984;3.538;2024-01-30T11:12:29;102844.41;;;12.95;62.61
47716;BME280;33476;50.984;3.538;2024-01-30T11:17:51;102851.78;;;12.79;62.69
47716;BME280;33476;50.984;3.538;2024-01-30T11:20:27;102850.66;;;12.89;62.42
47716;BME280;33476;50.984;3.538;2024-01-30T11:22:56;102841.88;;;12.92;62.43
47716;BME280;33476;50.984;3.538;2024-01-30T11:25:23;102852.28;;;12.95;62.08
47716;BME280;33476;50.984;3.538;2024-01-30T11:27:50;102858.34;;;12.97;61.73
47716;BME280;33476;50.984;3.538;2024-01-30T11:30:29;102854.84;;;12.97;61.99
47716;BME280;33476;50.984;3.538;2024-01-30T11:33:05;102866.19;;;12.97;61.89
47716;BME280;33476;50.984;3.538;2024-01-30T11:35:36;102863.78;;;12.89;61.53
47716;BME280;33476;50.984;3.538;2024-01-30T11:38:03;102866.44;;;12.88;61.66
47716;BME280;33476;50.984;3.538;2024-01-30T11:40:29;102881.41;;;12.84;61.49
47716;BME280;33476;50.984;3.538;2024-01-30T11:42:56;102876.16;;;12.84;61.80
47716;BME280;33476;50.984;3.538;2024-01-30T11:45:21;102876.19;;;12.83;61.61
47716;BME280;33476;50.984;3.538;2024-01-30T11:47:47;102871.91;;;12.79;62.00
47716;BME280;33476;50.984;3.538;2024-01-30T11:50:13;102878.84;;;12.81;61.60
47716;BME280;33476;50.984;3.538;2024-01-30T11:52:39;102872.84;;;12.76;61.93
47716;BME280;33476;50.984;3.538;2024-01-30T11:55:05;102880.81;;;12.72;61.83
47716;BME280;33476;50.984;3.538;2024-01-30T11:57:30;102887.09;;;12.66;61.87
47716;BME280;33476;50.984;3.538;2024-01-30T11:59:56;102881.84;;;12.66;62.21
47716;BME280;33476;50.984;3.538;2024-01-30T12:02:21;102893.28;;;12.62;62.12
47716;BME280;33476;50.984;3.538;2024-01-30T12:04:47;102894.22;;;12.59;62.20
47716;BME280;33476;50.984;3.538;2024-01-30T12:07:12;102897.72;;;12.60;62.21
47716;BME280;33476;50.984;3.538;2024-01-30T12:09:41;102899.53;;;12.56;62.34
47716;BME280;33476;50.984;3.538;2024-01-30T12:12:07;102901.44;;;12.50;61.91
47716;BME280;33476;50.984;3.538;2024-01-30T12:14:38;102900.75;;;12.42;62.09
47716;BME280;33476;50.984;3.538;2024-01-30T12:17:04;102906.91;;;12.39;62.18
47716;BME280;33476;50.984;3.538;2024-01-30T12:19:29;102907.78;;;12.40;62.16
47716;BME280;33476;50.984;3.538;2024-01-30T12:21:56;102904.25;;;12.41;61.66
47716;BME280;33476;50.984;3.538;2024-01-30T12:24:25;102910.44;;;12.38;61.75
47716;BME280;33476;50.984;3.538;2024-01-30T12:26:50;102918.22;;;12.43;61.67
47716;BME280;33476;50.984;3.538;2024-01-30T12:29:16;102915.66;;;12.38;61.66
47716;BME280;33476;50.984;3.538;2024-01-30T12:31:42;102920.06;;;12.37;61.54
47716;BME280;33476;50.984;3.538;2024-01-30T12:34:08;102914.06;;;12.31;61.10
47716;BME280;33476;50.984;3.538;2024-01-30T12:36:34;102917.63;;;12.28;61.16
47716;BME280;33476;50.984;3.538;2024-01-30T12:39:00;102920.34;;;12.25;61.15
47716;BME280;33476;50.984;3.538;2024-01-30T12:41:26;102928.25;;;12.22;60.86
47716;BME280;33476;50.984;3.538;2024-01-30T12:43:56;102926.47;;;12.23;60.76
47716;BME280;33476;50.984;3.538;2024-01-30T12:46:26;102935.19;;;12.23;60.58
47716;BME280;33476;50.984;3.538;2024-01-30T12:48:52;102935.84;;;12.34;60.46